Cuovddatmohkki, Norway

12:49 AM CEST on October 21, 2014 (GMT +0200)
Alta | Change Station
CLOSE
Current Station
Airport
Location: Alta Lufthavn,
Elevation: 10 ft
Nearby Weather Stations

Elev 10 ft 69.98 °N, 23.36 °E | Updated 29 minutes ago

Clear
Clear
23 °F
Feels Like 16 °F
N
6
Wind Variable Wind from ENE

Today
High -- | Low -- °F
--% Chance of Precip.
Yesterday
High -- | Low -- °F
Precip. -- in
7:56 AM 4:16 PM
Waning Crescent, 9% visible
Pressure 29.86 in
Visibility 6.2 miles
Clouds
Windchill 16 °F
Dew Point 16 °F
Humidity 74%
Rainfall 0.00 in
Snow Depth Not available.
UV Not available.
Pollen Not available.
Air Quality Not available.
Flu Activity Not available.
METAR ENAT 202220Z AUTO 07005KT 030V110 9999NDV NCD M05/M09 Q1011 RMK WIND 700FT 13011KT

More Conditions Fewer Conditions

Pressure 29.86 in
Visibility 6.2 miles
Clouds
Windchill 16 °F
Dew Point 16 °F
Humidity 74%
Rainfall 0.00 in
Snow Depth Not available.
UV Not available.
Pollen Not available.
Air Quality Not available.
Flu Activity Not available.
METAR ENAT 202220Z AUTO 07005KT 030V110 9999NDV NCD M05/M09 Q1011 RMK WIND 700FT 13011KT

More Conditions Fewer Conditions

10-Day Weather Forecast

Almanac

Astronomy

Oct. 21, 2014 Rise Set
Actual Time 7:56 AM CEST 4:16 PM CEST
Civil Twilight 6:52 AM CEST 5:19 PM CEST
Nautical Twilight 5:43 AM CEST 6:28 PM CEST
Astronomical Twilight 4:34 AM CEST 7:37 PM CEST
Moon 4:06 AM CEST (10/21) 4:02 PM CEST (10/21)
Length of Visible Light 10h 26m
Length of Day
8h 19m
Tomorrow will be 8m 48s shorter.
Waning Crescent, 9% of the Moon is Illuminated
Oct 20
Waning Crescent
Oct 23
New
Oct 30
First Quarter
Nov 6
Full
Nov 14
Last Quarter

Yesterday's Extremes

Country Highs Country Lows

Community

WunderPhotos

Upload Photos

1,763,541 photos uploaded!

WunderBlogs® & News

By Dr. Jeff Masters
Director of Meteorology, Weather Underground
By Kari Strenfel
Meteorologist, Weather Underground
By Christopher C. Burt
Weather Historian, Weather Underground
October 20, 2014
October 20, 2014
October 20, 2014

Nearby

Snow Depth

Not available.

Earthquake Activity

City Distance Mag. Time & Date
No recent earthquake activity has been reported nearby.
Minimum magnitude displayed is 2.5.

Coastal Water Temperatures

Place Temperature
No Stations Reporting

Nearby Weather Stations